sensor_id;sensor_type;location;lat;lon;timestamp;P1;durP1;ratioP1;P2;durP2;ratioP2
40459;SDS011;26164;51.138;16.952;2023-06-14T00:01:17;9.15;;;5.63;;
40459;SDS011;26164;51.138;16.952;2023-06-14T00:03:45;10.68;;;5.85;;
40459;SDS011;26164;51.138;16.952;2023-06-14T00:06:12;8.23;;;5.80;;
40459;SDS011;26164;51.138;16.952;2023-06-14T00:08:38;7.28;;;5.38;;
40459;SDS011;26164;51.138;16.952;2023-06-14T00:11:05;8.43;;;5.50;;
40459;SDS011;26164;51.138;16.952;2023-06-14T00:13:30;8.40;;;4.95;;
40459;SDS011;26164;51.138;16.952;2023-06-14T00:15:56;9.93;;;5.72;;
40459;SDS011;26164;51.138;16.952;2023-06-14T00:18:22;8.55;;;5.57;;
40459;SDS011;26164;51.138;16.952;2023-06-14T00:20:49;8.75;;;5.43;;
40459;SDS011;26164;51.138;16.952;2023-06-14T00:23:15;9.73;;;5.30;;
40459;SDS011;26164;51.138;16.952;2023-06-14T00:25:41;10.15;;;5.88;;
40459;SDS011;26164;51.138;16.952;2023-06-14T00:28:06;15.80;;;5.07;;
40459;SDS011;26164;51.138;16.952;2023-06-14T00:30:32;10.38;;;5.75;;
40459;SDS011;26164;51.138;16.952;2023-06-14T00:32:57;9.07;;;5.80;;
40459;SDS011;26164;51.138;16.952;2023-06-14T00:35:25;9.00;;;5.75;;
40459;SDS011;26164;51.138;16.952;2023-06-14T00:37:50;8.07;;;5.82;;
40459;SDS011;26164;51.138;16.952;2023-06-14T00:40:16;7.38;;;5.75;;
40459;SDS011;26164;51.138;16.952;2023-06-14T00:42:44;8.70;;;5.35;;
40459;SDS011;26164;51.138;16.952;2023-06-14T00:45:10;11.68;;;5.22;;
40459;SDS011;26164;51.138;16.952;2023-06-14T00:47:35;10.73;;;5.60;;
40459;SDS011;26164;51.138;16.952;2023-06-14T00:50:03;9.55;;;5.28;;
40459;SDS011;26164;51.138;16.952;2023-06-14T00:52:30;8.48;;;5.38;;
40459;SDS011;26164;51.138;16.952;2023-06-14T00:54:58;7.15;;;5.38;;
40459;SDS011;26164;51.138;16.952;2023-06-14T00:57:23;8.82;;;5.00;;
40459;SDS011;26164;51.138;16.952;2023-06-14T00:59:49;9.05;;;5.60;;
40459;SDS011;26164;51.138;16.952;2023-06-14T01:02:15;10.65;;;5.32;;
40459;SDS011;26164;51.138;16.952;2023-06-14T01:04:43;7.22;;;5.72;;
40459;SDS011;26164;51.138;16.952;2023-06-14T01:15:01;8.32;;;5.20;;
40459;SDS011;26164;51.138;16.952;2023-06-14T01:17:28;8.35;;;5.60;;
40459;SDS011;26164;51.138;16.952;2023-06-14T01:19:58;7.90;;;5.38;;
40459;SDS011;26164;51.138;16.952;2023-06-14T01:22:27;7.65;;;4.78;;
40459;SDS011;26164;51.138;16.952;2023-06-14T01:24:55;11.43;;;5.40;;
40459;SDS011;26164;51.138;16.952;2023-06-14T01:27:22;9.55;;;5.22;;
40459;SDS011;26164;51.138;16.952;2023-06-14T01:29:52;8.43;;;4.95;;
40459;SDS011;26164;51.138;16.952;2023-06-14T01:32:23;7.65;;;5.45;;
40459;SDS011;26164;51.138;16.952;2023-06-14T01:34:49;8.18;;;5.72;;
40459;SDS011;26164;51.138;16.952;2023-06-14T01:37:14;8.43;;;5.70;;
40459;SDS011;26164;51.138;16.952;2023-06-14T01:39:41;8.15;;;5.93;;
40459;SDS011;26164;51.138;16.952;2023-06-14T01:42:08;8.77;;;6.38;;
40459;SDS011;26164;51.138;16.952;2023-06-14T01:44:36;8.38;;;6.00;;
40459;SDS011;26164;51.138;16.952;2023-06-14T01:47:02;8.40;;;5.63;;
40459;SDS011;26164;51.138;16.952;2023-06-14T01:49:28;11.20;;;6.03;;
40459;SDS011;26164;51.138;16.952;2023-06-14T01:51:54;9.48;;;6.13;;
40459;SDS011;26164;51.138;16.952;2023-06-14T01:54:19;12.75;;;6.55;;
40459;SDS011;26164;51.138;16.952;2023-06-14T01:56:47;10.57;;;6.47;;
40459;SDS011;26164;51.138;16.952;2023-06-14T01:59:12;8.40;;;5.68;;
40459;SDS011;26164;51.138;16.952;2023-06-14T02:01:38;11.18;;;5.93;;
40459;SDS011;26164;51.138;16.952;2023-06-14T02:04:04;9.82;;;6.25;;
40459;SDS011;26164;51.138;16.952;2023-06-14T02:06:29;9.45;;;6.47;;
40459;SDS011;26164;51.138;16.952;2023-06-14T02:08:55;11.35;;;6.10;;
40459;SDS011;26164;51.138;16.952;2023-06-14T02:11:21;12.77;;;6.60;;
40459;SDS011;26164;51.138;16.952;2023-06-14T02:13:46;10.20;;;6.68;;
40459;SDS011;26164;51.138;16.952;2023-06-14T02:16:12;9.63;;;5.90;;
40459;SDS011;26164;51.138;16.952;2023-06-14T02:18:38;10.27;;;6.38;;
40459;SDS011;26164;51.138;16.952;2023-06-14T02:21:03;10.00;;;6.03;;
40459;SDS011;26164;51.138;16.952;2023-06-14T02:23:29;11.90;;;6.20;;
40459;SDS011;26164;51.138;16.952;2023-06-14T02:25:58;10.48;;;6.45;;
40459;SDS011;26164;51.138;16.952;2023-06-14T02:28:23;9.40;;;6.70;;
40459;SDS011;26164;51.138;16.952;2023-06-14T02:30:49;10.73;;;6.65;;
40459;SDS011;26164;51.138;16.952;2023-06-14T02:33:15;11.57;;;6.45;;
40459;SDS011;26164;51.138;16.952;2023-06-14T02:35:41;10.10;;;6.47;;
40459;SDS011;26164;51.138;16.952;2023-06-14T02:38:06;9.80;;;6.38;;
40459;SDS011;26164;51.138;16.952;2023-06-14T02:40:32;9.15;;;6.88;;
40459;SDS011;26164;51.138;16.952;2023-06-14T02:42:58;12.07;;;7.30;;
40459;SDS011;26164;51.138;16.952;2023-06-14T02:45:23;11.68;;;6.97;;
40459;SDS011;26164;51.138;16.952;2023-06-14T02:47:49;12.88;;;6.97;;
40459;SDS011;26164;51.138;16.952;2023-06-14T02:50:15;11.50;;;7.32;;
40459;SDS011;26164;51.138;16.952;2023-06-14T02:52:41;14.10;;;8.13;;
40459;SDS011;26164;51.138;16.952;2023-06-14T02:55:09;12.25;;;7.75;;
40459;SDS011;26164;51.138;16.952;2023-06-14T02:57:36;10.88;;;6.82;;
40459;SDS011;26164;51.138;16.952;2023-06-14T03:00:02;16.58;;;7.72;;
40459;SDS011;26164;51.138;16.952;2023-06-14T03:02:30;11.75;;;6.82;;
40459;SDS011;26164;51.138;16.952;2023-06-14T03:04:55;12.20;;;7.47;;
40459;SDS011;26164;51.138;16.952;2023-06-14T03:07:22;10.95;;;8.05;;
40459;SDS011;26164;51.138;16.952;2023-06-14T03:09:50;11.32;;;7.70;;
40459;SDS011;26164;51.138;16.952;2023-06-14T03:12:16;11.95;;;7.13;;
40459;SDS011;26164;51.138;16.952;2023-06-14T03:14:42;14.13;;;7.40;;
40459;SDS011;26164;51.138;16.952;2023-06-14T03:17:14;10.00;;;6.70;;
40459;SDS011;26164;51.138;16.952;2023-06-14T03:19:40;14.18;;;7.22;;
40459;SDS011;26164;51.138;16.952;2023-06-14T03:22:07;12.80;;;7.88;;
40459;SDS011;26164;51.138;16.952;2023-06-14T03:24:33;9.95;;;7.43;;
40459;SDS011;26164;51.138;16.952;2023-06-14T03:27:02;11.40;;;8.20;;
40459;SDS011;26164;51.138;16.952;2023-06-14T03:29:28;12.02;;;8.35;;
40459;SDS011;26164;51.138;16.952;2023-06-14T03:31:58;13.02;;;7.70;;
40459;SDS011;26164;51.138;16.952;2023-06-14T03:34:25;14.25;;;7.47;;
40459;SDS011;26164;51.138;16.952;2023-06-14T03:36:51;10.73;;;7.45;;
40459;SDS011;26164;51.138;16.952;2023-06-14T03:39:17;12.23;;;7.55;;
40459;SDS011;26164;51.138;16.952;2023-06-14T03:41:43;14.32;;;7.13;;
40459;SDS011;26164;51.138;16.952;2023-06-14T03:44:08;10.88;;;7.53;;
40459;SDS011;26164;51.138;16.952;2023-06-14T03:46:34;10.10;;;6.82;;
40459;SDS011;26164;51.138;16.952;2023-06-14T03:49:00;9.43;;;6.55;;
40459;SDS011;26164;51.138;16.952;2023-06-14T03:51:26;9.65;;;6.78;;
40459;SDS011;26164;51.138;16.952;2023-06-14T03:53:51;10.43;;;6.68;;
40459;SDS011;26164;51.138;16.952;2023-06-14T03:56:17;9.20;;;6.18;;
40459;SDS011;26164;51.138;16.952;2023-06-14T03:58:42;8.48;;;5.60;;
40459;SDS011;26164;51.138;16.952;2023-06-14T04:01:09;9.27;;;5.65;;
40459;SDS011;26164;51.138;16.952;2023-06-14T04:03:37;9.95;;;5.90;;
40459;SDS011;26164;51.138;16.952;2023-06-14T04:06:04;9.48;;;5.90;;
40459;SDS011;26164;51.138;16.952;2023-06-14T04:08:30;11.23;;;5.85;;
40459;SDS011;26164;51.138;16.952;2023-06-14T04:10:57;10.02;;;5.90;;
40459;SDS011;26164;51.138;16.952;2023-06-14T04:13:23;10.43;;;5.97;;
40459;SDS011;26164;51.138;16.952;2023-06-14T04:15:49;9.15;;;5.85;;
40459;SDS011;26164;51.138;16.952;2023-06-14T04:18:20;12.80;;;6.55;;
40459;SDS011;26164;51.138;16.952;2023-06-14T04:20:46;8.30;;;5.95;;
40459;SDS011;26164;51.138;16.952;2023-06-14T04:25:38;12.55;;;6.15;;
40459;SDS011;26164;51.138;16.952;2023-06-14T04:28:05;20.80;;;6.35;;
40459;SDS011;26164;51.138;16.952;2023-06-14T04:30:31;14.82;;;6.82;;
40459;SDS011;26164;51.138;16.952;2023-06-14T04:32:57;14.20;;;7.35;;
40459;SDS011;26164;51.138;16.952;2023-06-14T04:35:23;13.10;;;6.45;;
40459;SDS011;26164;51.138;16.952;2023-06-14T04:37:54;11.52;;;6.90;;
40459;SDS011;26164;51.138;16.952;2023-06-14T04:40:21;12.68;;;6.22;;
40459;SDS011;26164;51.138;16.952;2023-06-14T04:42:47;8.82;;;6.18;;
40459;SDS011;26164;51.138;16.952;2023-06-14T04:45:15;8.40;;;5.82;;
40459;SDS011;26164;51.138;16.952;2023-06-14T04:47:43;10.80;;;5.95;;
40459;SDS011;26164;51.138;16.952;2023-06-14T04:50:09;9.48;;;6.30;;
40459;SDS011;26164;51.138;16.952;2023-06-14T04:52:36;10.88;;;6.47;;
40459;SDS011;26164;51.138;16.952;2023-06-14T04:55:04;8.45;;;5.60;;
40459;SDS011;26164;51.138;16.952;2023-06-14T04:57:31;8.80;;;6.03;;
40459;SDS011;26164;51.138;16.952;2023-06-14T04:59:59;10.10;;;6.10;;
40459;SDS011;26164;51.138;16.952;2023-06-14T05:02:28;8.65;;;5.55;;
40459;SDS011;26164;51.138;16.952;2023-06-14T05:04:56;9.68;;;6.15;;
40459;SDS011;26164;51.138;16.952;2023-06-14T05:07:22;10.15;;;6.68;;
40459;SDS011;26164;51.138;16.952;2023-06-14T05:09:51;11.60;;;6.70;;
40459;SDS011;26164;51.138;16.952;2023-06-14T05:12:16;10.95;;;7.13;;
40459;SDS011;26164;51.138;16.952;2023-06-14T05:14:45;11.40;;;6.93;;
40459;SDS011;26164;51.138;16.952;2023-06-14T05:17:11;9.55;;;6.30;;
40459;SDS011;26164;51.138;16.952;2023-06-14T05:19:36;10.75;;;7.25;;
40459;SDS011;26164;51.138;16.952;2023-06-14T05:22:02;10.93;;;7.53;;
40459;SDS011;26164;51.138;16.952;2023-06-14T05:24:28;10.18;;;7.68;;
40459;SDS011;26164;51.138;16.952;2023-06-14T05:26:56;10.10;;;7.07;;
40459;SDS011;26164;51.138;16.952;2023-06-14T05:29:22;11.73;;;7.38;;
40459;SDS011;26164;51.138;16.952;2023-06-14T05:31:47;11.82;;;7.13;;
40459;SDS011;26164;51.138;16.952;2023-06-14T05:34:13;12.95;;;7.75;;
40459;SDS011;26164;51.138;16.952;2023-06-14T05:36:39;11.90;;;7.63;;
40459;SDS011;26164;51.138;16.952;2023-06-14T05:39:05;13.35;;;8.65;;
40459;SDS011;26164;51.138;16.952;2023-06-14T05:41:31;13.95;;;8.55;;
40459;SDS011;26164;51.138;16.952;2023-06-14T05:43:56;13.15;;;8.63;;
40459;SDS011;26164;51.138;16.952;2023-06-14T05:46:23;12.85;;;8.15;;
40459;SDS011;26164;51.138;16.952;2023-06-14T05:48:51;12.98;;;8.80;;
40459;SDS011;26164;51.138;16.952;2023-06-14T05:51:17;14.32;;;9.63;;
40459;SDS011;26164;51.138;16.952;2023-06-14T05:53:45;14.43;;;9.85;;
40459;SDS011;26164;51.138;16.952;2023-06-14T05:56:11;13.52;;;9.60;;
40459;SDS011;26164;51.138;16.952;2023-06-14T05:58:37;14.60;;;10.25;;
40459;SDS011;26164;51.138;16.952;2023-06-14T06:01:02;16.75;;;11.43;;
40459;SDS011;26164;51.138;16.952;2023-06-14T06:03:29;16.48;;;10.88;;
40459;SDS011;26164;51.138;16.952;2023-06-14T06:05:55;14.82;;;10.77;;
40459;SDS011;26164;51.138;16.952;2023-06-14T06:08:21;21.27;;;12.02;;
40459;SDS011;26164;51.138;16.952;2023-06-14T06:10:46;15.68;;;10.80;;
40459;SDS011;26164;51.138;16.952;2023-06-14T06:13:12;18.13;;;11.52;;
40459;SDS011;26164;51.138;16.952;2023-06-14T06:15:38;16.33;;;11.45;;
40459;SDS011;26164;51.138;16.952;2023-06-14T06:18:03;15.95;;;11.40;;
40459;SDS011;26164;51.138;16.952;2023-06-14T06:20:29;14.38;;;10.60;;
40459;SDS011;26164;51.138;16.952;2023-06-14T06:22:57;16.25;;;10.43;;
40459;SDS011;26164;51.138;16.952;2023-06-14T06:25:23;16.80;;;11.10;;
40459;SDS011;26164;51.138;16.952;2023-06-14T06:27:51;15.25;;;10.57;;
40459;SDS011;26164;51.138;16.952;2023-06-14T06:30:17;17.02;;;10.65;;
40459;SDS011;26164;51.138;16.952;2023-06-14T06:32:44;14.00;;;9.77;;
40459;SDS011;26164;51.138;16.952;2023-06-14T06:35:10;12.35;;;8.68;;
40459;SDS011;26164;51.138;16.952;2023-06-14T06:37:36;15.57;;;11.10;;
40459;SDS011;26164;51.138;16.952;2023-06-14T06:40:02;16.08;;;12.02;;
40459;SDS011;26164;51.138;16.952;2023-06-14T06:42:31;16.88;;;12.65;;
40459;SDS011;26164;51.138;16.952;2023-06-14T06:44:58;20.73;;;12.88;;
40459;SDS011;26164;51.138;16.952;2023-06-14T06:47:24;19.55;;;11.85;;
40459;SDS011;26164;51.138;16.952;2023-06-14T06:49:50;14.52;;;11.43;;
40459;SDS011;26164;51.138;16.952;2023-06-14T06:52:16;19.92;;;12.55;;
40459;SDS011;26164;51.138;16.952;2023-06-14T06:54:41;19.35;;;12.38;;
40459;SDS011;26164;51.138;16.952;2023-06-14T06:57:07;18.83;;;12.65;;
40459;SDS011;26164;51.138;16.952;2023-06-14T06:59:33;19.50;;;12.13;;
40459;SDS011;26164;51.138;16.952;2023-06-14T07:01:59;18.23;;;11.88;;
40459;SDS011;26164;51.138;16.952;2023-06-14T07:04:25;18.45;;;11.95;;
40459;SDS011;26164;51.138;16.952;2023-06-14T07:06:51;16.95;;;12.15;;
40459;SDS011;26164;51.138;16.952;2023-06-14T07:09:17;21.58;;;12.00;;
40459;SDS011;26164;51.138;16.952;2023-06-14T07:11:43;21.50;;;12.50;;
40459;SDS011;26164;51.138;16.952;2023-06-14T07:14:10;19.17;;;13.57;;
40459;SDS011;26164;51.138;16.952;2023-06-14T07:16:37;18.23;;;13.00;;
40459;SDS011;26164;51.138;16.952;2023-06-14T07:19:03;17.67;;;12.52;;
40459;SDS011;26164;51.138;16.952;2023-06-14T07:21:29;19.30;;;12.57;;
40459;SDS011;26164;51.138;16.952;2023-06-14T07:23:54;24.38;;;13.13;;
40459;SDS011;26164;51.138;16.952;2023-06-14T07:26:20;18.85;;;13.38;;
40459;SDS011;26164;51.138;16.952;2023-06-14T07:28:46;21.98;;;13.85;;
40459;SDS011;26164;51.138;16.952;2023-06-14T07:31:13;22.77;;;13.60;;
40459;SDS011;26164;51.138;16.952;2023-06-14T07:33:39;20.55;;;13.95;;
40459;SDS011;26164;51.138;16.952;2023-06-14T07:36:05;18.40;;;12.80;;
40459;SDS011;26164;51.138;16.952;2023-06-14T07:38:30;19.67;;;12.93;;
40459;SDS011;26164;51.138;16.952;2023-06-14T07:40:56;16.10;;;11.88;;
40459;SDS011;26164;51.138;16.952;2023-06-14T07:43:21;18.33;;;12.25;;
40459;SDS011;26164;51.138;16.952;2023-06-14T07:45:48;16.17;;;11.35;;
40459;SDS011;26164;51.138;16.952;2023-06-14T07:48:13;15.40;;;10.43;;
40459;SDS011;26164;51.138;16.952;2023-06-14T07:50:42;17.33;;;10.90;;
40459;SDS011;26164;51.138;16.952;2023-06-14T07:53:07;15.63;;;10.63;;
40459;SDS011;26164;51.138;16.952;2023-06-14T07:55:34;15.75;;;10.25;;
40459;SDS011;26164;51.138;16.952;2023-06-14T07:58:02;15.75;;;10.15;;
40459;SDS011;26164;51.138;16.952;2023-06-14T08:00:28;14.60;;;10.55;;
40459;SDS011;26164;51.138;16.952;2023-06-14T08:02:58;15.18;;;9.68;;
40459;SDS011;26164;51.138;16.952;2023-06-14T08:05:26;14.88;;;9.75;;
40459;SDS011;26164;51.138;16.952;2023-06-14T08:07:51;14.25;;;9.27;;
40459;SDS011;26164;51.138;16.952;2023-06-14T08:10:17;13.43;;;9.60;;
40459;SDS011;26164;51.138;16.952;2023-06-14T08:12:43;15.90;;;9.57;;
40459;SDS011;26164;51.138;16.952;2023-06-14T08:15:09;13.77;;;9.23;;
40459;SDS011;26164;51.138;16.952;2023-06-14T08:17:38;13.93;;;8.75;;
40459;SDS011;26164;51.138;16.952;2023-06-14T08:20:04;14.38;;;9.93;;
40459;SDS011;26164;51.138;16.952;2023-06-14T08:22:30;14.07;;;8.93;;
40459;SDS011;26164;51.138;16.952;2023-06-14T08:25:00;13.00;;;9.00;;
40459;SDS011;26164;51.138;16.952;2023-06-14T08:27:26;13.57;;;9.18;;
40459;SDS011;26164;51.138;16.952;2023-06-14T08:29:52;15.70;;;10.20;;
40459;SDS011;26164;51.138;16.952;2023-06-14T08:32:17;14.93;;;9.57;;
40459;SDS011;26164;51.138;16.952;2023-06-14T08:34:43;15.57;;;9.73;;
40459;SDS011;26164;51.138;16.952;2023-06-14T08:37:09;16.50;;;10.55;;
40459;SDS011;26164;51.138;16.952;2023-06-14T08:39:34;17.65;;;11.75;;
40459;SDS011;26164;51.138;16.952;2023-06-14T08:42:01;17.30;;;11.48;;
40459;SDS011;26164;51.138;16.952;2023-06-14T08:44:27;15.57;;;11.00;;
40459;SDS011;26164;51.138;16.952;2023-06-14T08:46:53;14.15;;;9.95;;
40459;SDS011;26164;51.138;16.952;2023-06-14T08:49:21;17.17;;;10.60;;
40459;SDS011;26164;51.138;16.952;2023-06-14T08:51:46;14.43;;;9.27;;
40459;SDS011;26164;51.138;16.952;2023-06-14T08:54:17;11.80;;;7.93;;
40459;SDS011;26164;51.138;16.952;2023-06-14T08:56:46;11.88;;;7.55;;
40459;SDS011;26164;51.138;16.952;2023-06-14T08:59:13;11.80;;;7.10;;
40459;SDS011;26164;51.138;16.952;2023-06-14T09:01:40;9.60;;;7.63;;
40459;SDS011;26164;51.138;16.952;2023-06-14T09:04:06;9.73;;;6.82;;
40459;SDS011;26164;51.138;16.952;2023-06-14T09:06:32;10.80;;;7.38;;
40459;SDS011;26164;51.138;16.952;2023-06-14T09:08:58;10.88;;;7.03;;
40459;SDS011;26164;51.138;16.952;2023-06-14T09:11:25;9.45;;;6.80;;
40459;SDS011;26164;51.138;16.952;2023-06-14T09:13:53;10.88;;;6.82;;
40459;SDS011;26164;51.138;16.952;2023-06-14T09:16:19;9.98;;;6.28;;
40459;SDS011;26164;51.138;16.952;2023-06-14T09:18:47;8.35;;;6.20;;
40459;SDS011;26164;51.138;16.952;2023-06-14T09:21:13;9.25;;;6.95;;
40459;SDS011;26164;51.138;16.952;2023-06-14T09:23:43;12.88;;;7.20;;
40459;SDS011;26164;51.138;16.952;2023-06-14T09:26:10;9.60;;;6.50;;
40459;SDS011;26164;51.138;16.952;2023-06-14T09:28:36;8.73;;;6.35;;
40459;SDS011;26164;51.138;16.952;2023-06-14T09:31:02;12.57;;;6.28;;
40459;SDS011;26164;51.138;16.952;2023-06-14T09:33:28;7.65;;;5.35;;
40459;SDS011;26164;51.138;16.952;2023-06-14T09:35:56;9.75;;;5.45;;
40459;SDS011;26164;51.138;16.952;2023-06-14T09:38:23;7.53;;;5.15;;
40459;SDS011;26164;51.138;16.952;2023-06-14T09:40:49;8.48;;;5.68;;
40459;SDS011;26164;51.138;16.952;2023-06-14T09:43:15;12.07;;;5.68;;
40459;SDS011;26164;51.138;16.952;2023-06-14T09:45:41;7.55;;;5.28;;
40459;SDS011;26164;51.138;16.952;2023-06-14T09:48:11;9.85;;;5.43;;
40459;SDS011;26164;51.138;16.952;2023-06-14T09:50:37;9.18;;;5.38;;
40459;SDS011;26164;51.138;16.952;2023-06-14T09:53:06;7.03;;;5.57;;
40459;SDS011;26164;51.138;16.952;2023-06-14T09:55:36;10.30;;;5.45;;
40459;SDS011;26164;51.138;16.952;2023-06-14T09:58:06;11.25;;;5.55;;
40459;SDS011;26164;51.138;16.952;2023-06-14T10:00:32;8.43;;;5.70;;
40459;SDS011;26164;51.138;16.952;2023-06-14T10:03:00;8.30;;;5.30;;
40459;SDS011;26164;51.138;16.952;2023-06-14T10:05:29;7.95;;;5.55;;
40459;SDS011;26164;51.138;16.952;2023-06-14T10:08:04;7.40;;;5.30;;
40459;SDS011;26164;51.138;16.952;2023-06-14T10:10:33;9.73;;;5.50;;
40459;SDS011;26164;51.138;16.952;2023-06-14T10:25:07;7.63;;;4.07;;
40459;SDS011;26164;51.138;16.952;2023-06-14T10:27:37;8.32;;;4.20;;
40459;SDS011;26164;51.138;16.952;2023-06-14T10:30:05;9.88;;;4.38;;
40459;SDS011;26164;51.138;16.952;2023-06-14T10:32:31;6.40;;;3.47;;
40459;SDS011;26164;51.138;16.952;2023-06-14T10:34:58;14.57;;;4.10;;
40459;SDS011;26164;51.138;16.952;2023-06-14T10:37:24;6.85;;;3.90;;
40459;SDS011;26164;51.138;16.952;2023-06-14T10:39:50;10.35;;;4.28;;
40459;SDS011;26164;51.138;16.952;2023-06-14T10:42:16;7.63;;;3.80;;
40459;SDS011;26164;51.138;16.952;2023-06-14T10:44:51;6.05;;;4.35;;
40459;SDS011;26164;51.138;16.952;2023-06-14T10:49:54;8.15;;;4.00;;
40459;SDS011;26164;51.138;16.952;2023-06-14T10:52:22;7.82;;;4.35;;
40459;SDS011;26164;51.138;16.952;2023-06-14T10:54:55;8.30;;;4.10;;
40459;SDS011;26164;51.138;16.952;2023-06-14T10:57:21;8.27;;;4.20;;
40459;SDS011;26164;51.138;16.952;2023-06-14T10:59:46;8.07;;;4.10;;
40459;SDS011;26164;51.138;16.952;2023-06-14T11:07:18;6.60;;;3.90;;
40459;SDS011;26164;51.138;16.952;2023-06-14T11:12:34;8.73;;;4.13;;
40459;SDS011;26164;51.138;16.952;2023-06-14T11:15:01;9.98;;;4.70;;
40459;SDS011;26164;51.138;16.952;2023-06-14T11:17:27;9.63;;;5.00;;
40459;SDS011;26164;51.138;16.952;2023-06-14T11:20:07;8.65;;;4.30;;
40459;SDS011;26164;51.138;16.952;2023-06-14T11:22:38;4.88;;;3.60;;
40459;SDS011;26164;51.138;16.952;2023-06-14T11:25:04;8.45;;;3.97;;
40459;SDS011;26164;51.138;16.952;2023-06-14T11:27:32;10.50;;;3.65;;
40459;SDS011;26164;51.138;16.952;2023-06-14T11:29:58;9.02;;;3.65;;
40459;SDS011;26164;51.138;16.952;2023-06-14T11:32:24;7.22;;;3.75;;
40459;SDS011;26164;51.138;16.952;2023-06-14T11:34:50;10.32;;;3.63;;
40459;SDS011;26164;51.138;16.952;2023-06-14T11:37:17;6.63;;;3.35;;
40459;SDS011;26164;51.138;16.952;2023-06-14T11:39:45;6.57;;;3.58;;
40459;SDS011;26164;51.138;16.952;2023-06-14T11:42:15;6.93;;;3.15;;
40459;SDS011;26164;51.138;16.952;2023-06-14T11:44:40;6.53;;;2.80;;
40459;SDS011;26164;51.138;16.952;2023-06-14T11:47:06;6.10;;;2.88;;
40459;SDS011;26164;51.138;16.952;2023-06-14T11:49:35;6.35;;;3.10;;
40459;SDS011;26164;51.138;16.952;2023-06-14T11:52:01;6.63;;;3.25;;
40459;SDS011;26164;51.138;16.952;2023-06-14T11:54:26;8.80;;;3.53;;
40459;SDS011;26164;51.138;16.952;2023-06-14T11:56:53;9.15;;;3.50;;
40459;SDS011;26164;51.138;16.952;2023-06-14T11:59:18;7.88;;;3.03;;
40459;SDS011;26164;51.138;16.952;2023-06-14T12:01:47;6.47;;;3.13;;
40459;SDS011;26164;51.138;16.952;2023-06-14T12:04:13;9.40;;;3.22;;
40459;SDS011;26164;51.138;16.952;2023-06-14T12:06:39;8.32;;;3.25;;
40459;SDS011;26164;51.138;16.952;2023-06-14T12:09:05;8.15;;;2.80;;
40459;SDS011;26164;51.138;16.952;2023-06-14T12:11:38;7.53;;;3.42;;
40459;SDS011;26164;51.138;16.952;2023-06-14T12:14:04;4.82;;;2.90;;
40459;SDS011;26164;51.138;16.952;2023-06-14T12:16:31;9.10;;;2.83;;
40459;SDS011;26164;51.138;16.952;2023-06-14T12:19:20;6.05;;;3.25;;
40459;SDS011;26164;51.138;16.952;2023-06-14T12:21:46;6.35;;;3.08;;
40459;SDS011;26164;51.138;16.952;2023-06-14T12:24:13;9.63;;;3.05;;
40459;SDS011;26164;51.138;16.952;2023-06-14T12:26:40;10.68;;;3.08;;
40459;SDS011;26164;51.138;16.952;2023-06-14T12:29:06;8.05;;;3.22;;
40459;SDS011;26164;51.138;16.952;2023-06-14T12:31:34;12.50;;;3.33;;
40459;SDS011;26164;51.138;16.952;2023-06-14T12:34:00;6.82;;;3.72;;
40459;SDS011;26164;51.138;16.952;2023-06-14T12:36:26;8.90;;;3.17;;
40459;SDS011;26164;51.138;16.952;2023-06-14T12:38:52;8.15;;;2.88;;
40459;SDS011;26164;51.138;16.952;2023-06-14T12:41:21;7.78;;;3.15;;
40459;SDS011;26164;51.138;16.952;2023-06-14T12:43:47;5.15;;;3.72;;
40459;SDS011;26164;51.138;16.952;2023-06-14T12:46:13;7.22;;;3.20;;
40459;SDS011;26164;51.138;16.952;2023-06-14T12:48:39;12.20;;;3.63;;
40459;SDS011;26164;51.138;16.952;2023-06-14T12:51:04;7.32;;;3.50;;
40459;SDS011;26164;51.138;16.952;2023-06-14T12:53:30;5.40;;;3.60;;
40459;SDS011;26164;51.138;16.952;2023-06-14T12:55:56;7.70;;;3.40;;
40459;SDS011;26164;51.138;16.952;2023-06-14T12:58:22;7.20;;;3.38;;
40459;SDS011;26164;51.138;16.952;2023-06-14T13:00:49;15.18;;;4.13;;
40459;SDS011;26164;51.138;16.952;2023-06-14T13:03:15;7.25;;;3.63;;
40459;SDS011;26164;51.138;16.952;2023-06-14T13:05:41;11.50;;;4.05;;
40459;SDS011;26164;51.138;16.952;2023-06-14T13:08:08;9.65;;;3.92;;
40459;SDS011;26164;51.138;16.952;2023-06-14T13:10:34;8.27;;;3.53;;
40459;SDS011;26164;51.138;16.952;2023-06-14T13:13:00;9.95;;;4.25;;
40459;SDS011;26164;51.138;16.952;2023-06-14T13:15:26;10.18;;;3.95;;
40459;SDS011;26164;51.138;16.952;2023-06-14T13:17:53;10.85;;;3.78;;
40459;SDS011;26164;51.138;16.952;2023-06-14T13:20:19;13.35;;;3.83;;
40459;SDS011;26164;51.138;16.952;2023-06-14T13:22:44;8.77;;;3.60;;
40459;SDS011;26164;51.138;16.952;2023-06-14T13:25:12;6.97;;;3.72;;
40459;SDS011;26164;51.138;16.952;2023-06-14T13:27:37;6.75;;;3.75;;
40459;SDS011;26164;51.138;16.952;2023-06-14T13:30:03;10.20;;;4.10;;
40459;SDS011;26164;51.138;16.952;2023-06-14T13:32:30;8.20;;;3.58;;
40459;SDS011;26164;51.138;16.952;2023-06-14T13:34:56;8.20;;;4.03;;
40459;SDS011;26164;51.138;16.952;2023-06-14T13:37:22;8.05;;;4.07;;
40459;SDS011;26164;51.138;16.952;2023-06-14T13:39:47;5.18;;;3.55;;
40459;SDS011;26164;51.138;16.952;2023-06-14T13:42:13;8.25;;;3.70;;
40459;SDS011;26164;51.138;16.952;2023-06-14T13:44:41;11.60;;;3.80;;
40459;SDS011;26164;51.138;16.952;2023-06-14T13:47:06;8.02;;;3.85;;
40459;SDS011;26164;51.138;16.952;2023-06-14T13:49:32;7.60;;;3.85;;
40459;SDS011;26164;51.138;16.952;2023-06-14T13:52:00;8.05;;;3.90;;
40459;SDS011;26164;51.138;16.952;2023-06-14T13:54:26;9.10;;;3.85;;
40459;SDS011;26164;51.138;16.952;2023-06-14T13:56:52;7.53;;;3.10;;
40459;SDS011;26164;51.138;16.952;2023-06-14T13:59:17;6.72;;;4.00;;
40459;SDS011;26164;51.138;16.952;2023-06-14T14:01:45;7.45;;;3.55;;
40459;SDS011;26164;51.138;16.952;2023-06-14T14:04:12;10.70;;;3.72;;
40459;SDS011;26164;51.138;16.952;2023-06-14T14:06:38;9.32;;;3.90;;
40459;SDS011;26164;51.138;16.952;2023-06-14T14:09:04;7.90;;;3.85;;
40459;SDS011;26164;51.138;16.952;2023-06-14T14:11:30;6.97;;;3.42;;
40459;SDS011;26164;51.138;16.952;2023-06-14T14:13:58;12.50;;;3.88;;
40459;SDS011;26164;51.138;16.952;2023-06-14T14:16:24;7.88;;;3.75;;
40459;SDS011;26164;51.138;16.952;2023-06-14T14:18:50;13.68;;;4.18;;
40459;SDS011;26164;51.138;16.952;2023-06-14T14:21:15;6.22;;;3.80;;
40459;SDS011;26164;51.138;16.952;2023-06-14T14:23:41;8.63;;;4.43;;
40459;SDS011;26164;51.138;16.952;2023-06-14T14:26:07;7.60;;;4.15;;
40459;SDS011;26164;51.138;16.952;2023-06-14T14:28:33;5.30;;;3.80;;
40459;SDS011;26164;51.138;16.952;2023-06-14T14:30:58;9.25;;;4.22;;
40459;SDS011;26164;51.138;16.952;2023-06-14T14:33:25;18.40;;;4.13;;
40459;SDS011;26164;51.138;16.952;2023-06-14T14:35:50;12.75;;;3.85;;
40459;SDS011;26164;51.138;16.952;2023-06-14T14:38:16;7.95;;;3.88;;
40459;SDS011;26164;51.138;16.952;2023-06-14T14:40:42;5.32;;;3.25;;
40459;SDS011;26164;51.138;16.952;2023-06-14T14:43:09;5.88;;;3.20;;
40459;SDS011;26164;51.138;16.952;2023-06-14T14:45:35;7.15;;;2.92;;
40459;SDS011;26164;51.138;16.952;2023-06-14T14:48:03;3.50;;;2.72;;
40459;SDS011;26164;51.138;16.952;2023-06-14T14:50:28;10.90;;;2.88;;
40459;SDS011;26164;51.138;16.952;2023-06-14T14:52:55;5.07;;;3.45;;
40459;SDS011;26164;51.138;16.952;2023-06-14T14:55:21;3.83;;;2.67;;